sensor_id;sensor_type;location;lat;lon;timestamp;temperature;humidity
72772;SHT30;60894;42.544;1.516;2023-12-04T00:00:37;1.89;62.19
72772;SHT30;60894;42.544;1.516;2023-12-04T00:03:04;1.73;61.33
72772;SHT30;60894;42.544;1.516;2023-12-04T00:05:31;1.64;60.31
72772;SHT30;60894;42.544;1.516;2023-12-04T00:07:58;1.71;63.12
72772;SHT30;60894;42.544;1.516;2023-12-04T00:10:25;1.76;64.69
72772;SHT30;60894;42.544;1.516;2023-12-04T00:12:53;1.79;64.46
72772;SHT30;60894;42.544;1.516;2023-12-04T00:15:20;1.77;63.27
72772;SHT30;60894;42.544;1.516;2023-12-04T00:17:47;1.73;63.04
72772;SHT30;60894;42.544;1.516;2023-12-04T00:20:14;1.60;62.40
72772;SHT30;60894;42.544;1.516;2023-12-04T00:22:42;1.67;63.27
72772;SHT30;60894;42.544;1.516;2023-12-04T00:25:08;1.73;63.52
72772;SHT30;60894;42.544;1.516;2023-12-04T00:27:35;1.80;62.36
72772;SHT30;60894;42.544;1.516;2023-12-04T00:30:05;1.90;62.06
72772;SHT30;60894;42.544;1.516;2023-12-04T00:32:32;1.91;62.13
72772;SHT30;60894;42.544;1.516;2023-12-04T00:34:59;1.97;61.96
72772;SHT30;60894;42.544;1.516;2023-12-04T00:37:26;1.93;61.57
72772;SHT30;60894;42.544;1.516;2023-12-04T00:39:53;1.96;61.84
72772;SHT30;60894;42.544;1.516;2023-12-04T00:42:20;2.01;62.66
72772;SHT30;60894;42.544;1.516;2023-12-04T00:44:47;2.01;62.90
72772;SHT30;60894;42.544;1.516;2023-12-04T00:47:16;2.07;62.71
72772;SHT30;60894;42.544;1.516;2023-12-04T00:49:43;2.14;60.84
72772;SHT30;60894;42.544;1.516;2023-12-04T00:52:10;2.14;60.16
72772;SHT30;60894;42.544;1.516;2023-12-04T00:54:39;2.20;60.09
72772;SHT30;60894;42.544;1.516;2023-12-04T00:57:06;2.13;60.32
72772;SHT30;60894;42.544;1.516;2023-12-04T00:59:33;1.91;61.31
72772;SHT30;60894;42.544;1.516;2023-12-04T01:02:00;2.04;61.48
72772;SHT30;60894;42.544;1.516;2023-12-04T01:04:28;2.07;61.23
72772;SHT30;60894;42.544;1.516;2023-12-04T01:06:55;2.07;60.61
72772;SHT30;60894;42.544;1.516;2023-12-04T01:09:22;2.15;61.29
72772;SHT30;60894;42.544;1.516;2023-12-04T01:11:50;2.15;60.44
72772;SHT30;60894;42.544;1.516;2023-12-04T01:14:17;2.15;60.38
72772;SHT30;60894;42.544;1.516;2023-12-04T01:16:44;2.18;59.88
72772;SHT30;60894;42.544;1.516;2023-12-04T01:19:11;2.10;60.08
72772;SHT30;60894;42.544;1.516;2023-12-04T01:21:39;2.06;61.13
72772;SHT30;60894;42.544;1.516;2023-12-04T01:24:06;2.01;62.37
72772;SHT30;60894;42.544;1.516;2023-12-04T01:26:33;2.10;63.08
72772;SHT30;60894;42.544;1.516;2023-12-04T01:29:00;2.10;62.66
72772;SHT30;60894;42.544;1.516;2023-12-04T01:31:27;2.10;63.09
72772;SHT30;60894;42.544;1.516;2023-12-04T01:33:54;2.10;62.15
72772;SHT30;60894;42.544;1.516;2023-12-04T01:36:21;2.09;61.95
72772;SHT30;60894;42.544;1.516;2023-12-04T01:38:49;2.22;61.43
72772;SHT30;60894;42.544;1.516;2023-12-04T01:41:16;2.06;61.74
72772;SHT30;60894;42.544;1.516;2023-12-04T01:43:43;1.94;60.67
72772;SHT30;60894;42.544;1.516;2023-12-04T01:46:10;1.97;62.44
72772;SHT30;60894;42.544;1.516;2023-12-04T01:48:37;1.91;63.32
72772;SHT30;60894;42.544;1.516;2023-12-04T01:51:07;1.93;62.39
72772;SHT30;60894;42.544;1.516;2023-12-04T01:53:38;2.01;62.18
72772;SHT30;60894;42.544;1.516;2023-12-04T01:56:08;1.93;62.79
72772;SHT30;60894;42.544;1.516;2023-12-04T01:58:36;2.01;62.47
72772;SHT30;60894;42.544;1.516;2023-12-04T02:01:05;1.80;62.98
72772;SHT30;60894;42.544;1.516;2023-12-04T02:03:32;1.83;63.04
72772;SHT30;60894;42.544;1.516;2023-12-04T02:05:59;1.83;64.97
72772;SHT30;60894;42.544;1.516;2023-12-04T02:08:28;1.77;64.05
72772;SHT30;60894;42.544;1.516;2023-12-04T02:10:55;1.89;63.74
72772;SHT30;60894;42.544;1.516;2023-12-04T02:13:23;1.84;63.25
72772;SHT30;60894;42.544;1.516;2023-12-04T02:15:53;1.86;62.78
72772;SHT30;60894;42.544;1.516;2023-12-04T02:18:21;1.93;62.73
72772;SHT30;60894;42.544;1.516;2023-12-04T02:20:48;1.96;62.60
72772;SHT30;60894;42.544;1.516;2023-12-04T02:23:15;1.99;62.99
72772;SHT30;60894;42.544;1.516;2023-12-04T02:25:44;1.99;62.50
72772;SHT30;60894;42.544;1.516;2023-12-04T02:28:13;1.81;62.60
72772;SHT30;60894;42.544;1.516;2023-12-04T02:30:43;1.77;63.00
72772;SHT30;60894;42.544;1.516;2023-12-04T02:33:11;1.84;62.82
72772;SHT30;60894;42.544;1.516;2023-12-04T02:35:40;1.86;64.23
72772;SHT30;60894;42.544;1.516;2023-12-04T02:38:09;1.91;64.33
72772;SHT30;60894;42.544;1.516;2023-12-04T02:40:37;1.84;65.54
72772;SHT30;60894;42.544;1.516;2023-12-04T02:43:05;1.79;64.96
72772;SHT30;60894;42.544;1.516;2023-12-04T02:45:32;1.79;64.24
72772;SHT30;60894;42.544;1.516;2023-12-04T02:47:59;1.80;63.91
72772;SHT30;60894;42.544;1.516;2023-12-04T02:50:26;1.86;64.45
72772;SHT30;60894;42.544;1.516;2023-12-04T02:52:53;1.97;62.98
72772;SHT30;60894;42.544;1.516;2023-12-04T02:55:20;2.22;62.28
72772;SHT30;60894;42.544;1.516;2023-12-04T02:57:47;2.10;61.96
72772;SHT30;60894;42.544;1.516;2023-12-04T03:00:16;2.06;61.36
72772;SHT30;60894;42.544;1.516;2023-12-04T03:02:45;2.04;61.74
72772;SHT30;60894;42.544;1.516;2023-12-04T03:05:13;2.04;62.13
72772;SHT30;60894;42.544;1.516;2023-12-04T03:07:40;2.06;62.14
72772;SHT30;60894;42.544;1.516;2023-12-04T03:10:07;1.97;63.96
72772;SHT30;60894;42.544;1.516;2023-12-04T03:12:34;2.01;65.13
72772;SHT30;60894;42.544;1.516;2023-12-04T03:15:04;1.94;64.38
72772;SHT30;60894;42.544;1.516;2023-12-04T03:17:33;2.00;63.39
72772;SHT30;60894;42.544;1.516;2023-12-04T03:20:05;2.10;63.62
72772;SHT30;60894;42.544;1.516;2023-12-04T03:22:34;2.01;63.56
72772;SHT30;60894;42.544;1.516;2023-12-04T03:25:04;2.04;63.25
72772;SHT30;60894;42.544;1.516;2023-12-04T03:27:37;2.13;63.15
72772;SHT30;60894;42.544;1.516;2023-12-04T03:30:05;2.03;63.83
72772;SHT30;60894;42.544;1.516;2023-12-04T03:32:37;2.17;64.18
72772;SHT30;60894;42.544;1.516;2023-12-04T03:35:04;2.07;64.07
72772;SHT30;60894;42.544;1.516;2023-12-04T03:37:31;2.15;63.49
72772;SHT30;60894;42.544;1.516;2023-12-04T03:39:58;2.01;63.42
72772;SHT30;60894;42.544;1.516;2023-12-04T03:42:25;2.01;64.22
72772;SHT30;60894;42.544;1.516;2023-12-04T03:44:52;2.03;64.27
72772;SHT30;60894;42.544;1.516;2023-12-04T03:47:19;2.07;63.70
72772;SHT30;60894;42.544;1.516;2023-12-04T03:49:48;2.17;62.60
72772;SHT30;60894;42.544;1.516;2023-12-04T03:52:16;2.10;62.64
72772;SHT30;60894;42.544;1.516;2023-12-04T03:54:43;2.09;61.48
72772;SHT30;60894;42.544;1.516;2023-12-04T03:57:10;2.09;59.15
72772;SHT30;60894;42.544;1.516;2023-12-04T03:59:37;2.00;59.97
72772;SHT30;60894;42.544;1.516;2023-12-04T04:02:04;2.13;61.85
72772;SHT30;60894;42.544;1.516;2023-12-04T04:04:31;2.10;62.99
72772;SHT30;60894;42.544;1.516;2023-12-04T04:07:00;2.15;62.91
72772;SHT30;60894;42.544;1.516;2023-12-04T04:09:27;2.20;62.40
72772;SHT30;60894;42.544;1.516;2023-12-04T04:11:54;2.20;62.13
72772;SHT30;60894;42.544;1.516;2023-12-04T04:14:21;2.17;61.92
72772;SHT30;60894;42.544;1.516;2023-12-04T04:16:48;2.21;61.52
72772;SHT30;60894;42.544;1.516;2023-12-04T04:19:15;2.22;61.29
72772;SHT30;60894;42.544;1.516;2023-12-04T04:21:44;2.31;60.65
72772;SHT30;60894;42.544;1.516;2023-12-04T04:24:15;2.24;61.60
72772;SHT30;60894;42.544;1.516;2023-12-04T04:26:42;2.22;63.23
72772;SHT30;60894;42.544;1.516;2023-12-04T04:29:09;2.25;63.47
72772;SHT30;60894;42.544;1.516;2023-12-04T04:31:36;2.34;62.40
72772;SHT30;60894;42.544;1.516;2023-12-04T04:34:03;2.24;61.97
72772;SHT30;60894;42.544;1.516;2023-12-04T04:36:30;2.35;61.55
72772;SHT30;60894;42.544;1.516;2023-12-04T04:38:59;2.24;61.52
72772;SHT30;60894;42.544;1.516;2023-12-04T04:41:28;2.18;61.15
72772;SHT30;60894;42.544;1.516;2023-12-04T04:43:55;2.11;61.60
72772;SHT30;60894;42.544;1.516;2023-12-04T04:46:22;2.15;61.24
72772;SHT30;60894;42.544;1.516;2023-12-04T04:48:50;2.22;61.63
72772;SHT30;60894;42.544;1.516;2023-12-04T04:51:17;2.30;61.68
72772;SHT30;60894;42.544;1.516;2023-12-04T04:53:44;2.34;61.88
72772;SHT30;60894;42.544;1.516;2023-12-04T04:56:11;2.35;61.41
72772;SHT30;60894;42.544;1.516;2023-12-04T04:58:40;2.38;62.33
72772;SHT30;60894;42.544;1.516;2023-12-04T05:01:08;2.42;62.46
72772;SHT30;60894;42.544;1.516;2023-12-04T05:03:35;2.49;61.70
72772;SHT30;60894;42.544;1.516;2023-12-04T05:06:02;2.44;61.84
72772;SHT30;60894;42.544;1.516;2023-12-04T05:08:34;2.40;61.71
72772;SHT30;60894;42.544;1.516;2023-12-04T05:11:01;2.45;61.46
72772;SHT30;60894;42.544;1.516;2023-12-04T05:13:28;2.52;60.50
72772;SHT30;60894;42.544;1.516;2023-12-04T05:15:59;2.52;60.67
72772;SHT30;60894;42.544;1.516;2023-12-04T05:18:26;2.45;61.28
72772;SHT30;60894;42.544;1.516;2023-12-04T05:20:55;2.49;63.17
72772;SHT30;60894;42.544;1.516;2023-12-04T05:23:22;2.49;63.35
72772;SHT30;60894;42.544;1.516;2023-12-04T05:25:49;2.63;63.12
72772;SHT30;60894;42.544;1.516;2023-12-04T05:28:16;2.68;62.89
72772;SHT30;60894;42.544;1.516;2023-12-04T05:30:43;2.65;63.70
72772;SHT30;60894;42.544;1.516;2023-12-04T05:33:11;2.68;63.99
72772;SHT30;60894;42.544;1.516;2023-12-04T05:35:38;2.58;64.43
72772;SHT30;60894;42.544;1.516;2023-12-04T05:38:05;2.51;64.25
72772;SHT30;60894;42.544;1.516;2023-12-04T05:40:34;2.58;65.55
72772;SHT30;60894;42.544;1.516;2023-12-04T05:43:01;2.56;65.00
72772;SHT30;60894;42.544;1.516;2023-12-04T05:45:27;2.53;64.50
72772;SHT30;60894;42.544;1.516;2023-12-04T05:47:55;2.49;64.94
72772;SHT30;60894;42.544;1.516;2023-12-04T05:50:23;2.58;65.39
72772;SHT30;60894;42.544;1.516;2023-12-04T05:52:50;2.63;64.72
72772;SHT30;60894;42.544;1.516;2023-12-04T05:55:17;2.61;63.93
72772;SHT30;60894;42.544;1.516;2023-12-04T05:57:45;2.63;63.74
72772;SHT30;60894;42.544;1.516;2023-12-04T06:00:13;2.53;63.59
72772;SHT30;60894;42.544;1.516;2023-12-04T06:02:41;2.52;64.44
72772;SHT30;60894;42.544;1.516;2023-12-04T06:05:08;2.59;64.64
72772;SHT30;60894;42.544;1.516;2023-12-04T06:07:37;2.62;64.68
72772;SHT30;60894;42.544;1.516;2023-12-04T06:10:05;2.62;63.80
72772;SHT30;60894;42.544;1.516;2023-12-04T06:12:34;2.58;62.90
72772;SHT30;60894;42.544;1.516;2023-12-04T06:15:01;2.63;62.96
72772;SHT30;60894;42.544;1.516;2023-12-04T06:17:28;2.68;63.25
72772;SHT30;60894;42.544;1.516;2023-12-04T06:19:55;2.62;64.57
72772;SHT30;60894;42.544;1.516;2023-12-04T06:22:22;2.65;63.33
72772;SHT30;60894;42.544;1.516;2023-12-04T06:24:52;2.62;63.61
72772;SHT30;60894;42.544;1.516;2023-12-04T06:27:20;2.59;65.21
72772;SHT30;60894;42.544;1.516;2023-12-04T06:29:47;2.59;65.00
72772;SHT30;60894;42.544;1.516;2023-12-04T06:32:16;2.42;65.42
72772;SHT30;60894;42.544;1.516;2023-12-04T06:34:44;2.44;65.49
72772;SHT30;60894;42.544;1.516;2023-12-04T06:37:13;2.30;65.96
72772;SHT30;60894;42.544;1.516;2023-12-04T06:39:40;2.24;66.69
72772;SHT30;60894;42.544;1.516;2023-12-04T06:42:11;2.28;67.56
72772;SHT30;60894;42.544;1.516;2023-12-04T06:44:38;2.31;67.38
72772;SHT30;60894;42.544;1.516;2023-12-04T06:47:08;2.40;67.59
72772;SHT30;60894;42.544;1.516;2023-12-04T06:49:35;2.35;67.32
72772;SHT30;60894;42.544;1.516;2023-12-04T06:52:03;2.30;66.89
72772;SHT30;60894;42.544;1.516;2023-12-04T06:54:30;2.28;67.55
72772;SHT30;60894;42.544;1.516;2023-12-04T06:56:57;2.27;67.60
72772;SHT30;60894;42.544;1.516;2023-12-04T06:59:25;2.32;67.91
72772;SHT30;60894;42.544;1.516;2023-12-04T07:01:53;2.30;68.39
72772;SHT30;60894;42.544;1.516;2023-12-04T07:04:20;2.27;68.29
72772;SHT30;60894;42.544;1.516;2023-12-04T07:06:47;2.44;68.33
72772;SHT30;60894;42.544;1.516;2023-12-04T07:09:14;2.27;67.48
72772;SHT30;60894;42.544;1.516;2023-12-04T07:11:42;2.22;68.10
72772;SHT30;60894;42.544;1.516;2023-12-04T07:14:09;2.20;69.28
72772;SHT30;60894;42.544;1.516;2023-12-04T07:16:43;2.30;68.93
72772;SHT30;60894;42.544;1.516;2023-12-04T07:19:10;2.35;68.13
72772;SHT30;60894;42.544;1.516;2023-12-04T07:21:39;2.22;68.09
72772;SHT30;60894;42.544;1.516;2023-12-04T07:24:06;2.06;68.57
72772;SHT30;60894;42.544;1.516;2023-12-04T07:26:33;2.10;68.54
72772;SHT30;60894;42.544;1.516;2023-12-04T07:29:01;2.01;70.20
72772;SHT30;60894;42.544;1.516;2023-12-04T07:31:28;1.97;69.19
72772;SHT30;60894;42.544;1.516;2023-12-04T07:33:56;2.06;69.07
72772;SHT30;60894;42.544;1.516;2023-12-04T07:36:25;2.18;69.08
72772;SHT30;60894;42.544;1.516;2023-12-04T07:38:52;2.17;69.32
72772;SHT30;60894;42.544;1.516;2023-12-04T07:41:20;2.04;69.45
72772;SHT30;60894;42.544;1.516;2023-12-04T07:43:47;2.03;69.68
72772;SHT30;60894;42.544;1.516;2023-12-04T07:46:14;2.07;69.42
72772;SHT30;60894;42.544;1.516;2023-12-04T07:48:41;2.18;69.26
72772;SHT30;60894;42.544;1.516;2023-12-04T07:51:10;2.28;69.93
72772;SHT30;60894;42.544;1.516;2023-12-04T07:53:37;2.28;69.84
72772;SHT30;60894;42.544;1.516;2023-12-04T07:56:05;2.24;70.01
72772;SHT30;60894;42.544;1.516;2023-12-04T07:58:33;2.31;69.57
72772;SHT30;60894;42.544;1.516;2023-12-04T08:01:00;2.38;69.28
72772;SHT30;60894;42.544;1.516;2023-12-04T08:03:27;2.40;69.09
72772;SHT30;60894;42.544;1.516;2023-12-04T08:05:54;2.46;69.01
72772;SHT30;60894;42.544;1.516;2023-12-04T08:08:22;2.49;68.61
72772;SHT30;60894;42.544;1.516;2023-12-04T08:10:49;2.53;68.47
72772;SHT30;60894;42.544;1.516;2023-12-04T08:13:16;2.56;68.36
72772;SHT30;60894;42.544;1.516;2023-12-04T08:15:44;2.59;68.32
72772;SHT30;60894;42.544;1.516;2023-12-04T08:18:10;2.51;68.58
72772;SHT30;60894;42.544;1.516;2023-12-04T08:20:38;2.48;69.69
72772;SHT30;60894;42.544;1.516;2023-12-04T08:23:04;2.55;70.12
72772;SHT30;60894;42.544;1.516;2023-12-04T08:25:33;2.58;69.99
72772;SHT30;60894;42.544;1.516;2023-12-04T08:28:01;2.58;69.45
72772;SHT30;60894;42.544;1.516;2023-12-04T08:30:28;2.53;68.73
72772;SHT30;60894;42.544;1.516;2023-12-04T08:32:56;2.31;69.24
72772;SHT30;60894;42.544;1.516;2023-12-04T08:35:22;2.21;69.72
72772;SHT30;60894;42.544;1.516;2023-12-04T08:37:49;2.21;69.86
72772;SHT30;60894;42.544;1.516;2023-12-04T08:40:17;2.38;69.89
72772;SHT30;60894;42.544;1.516;2023-12-04T08:42:45;2.53;69.97
72772;SHT30;60894;42.544;1.516;2023-12-04T08:45:12;2.62;69.66
72772;SHT30;60894;42.544;1.516;2023-12-04T08:47:39;2.68;69.33
72772;SHT30;60894;42.544;1.516;2023-12-04T08:50:07;2.71;68.92
72772;SHT30;60894;42.544;1.516;2023-12-04T08:52:34;2.78;69.07
72772;SHT30;60894;42.544;1.516;2023-12-04T08:55:01;3.12;68.55
72772;SHT30;60894;42.544;1.516;2023-12-04T08:57:28;3.24;67.72
72772;SHT30;60894;42.544;1.516;2023-12-04T08:59:57;3.34;67.22
72772;SHT30;60894;42.544;1.516;2023-12-04T09:02:24;3.48;66.96
72772;SHT30;60894;42.544;1.516;2023-12-04T09:04:51;3.62;66.81
72772;SHT30;60894;42.544;1.516;2023-12-04T09:07:18;3.78;66.28
72772;SHT30;60894;42.544;1.516;2023-12-04T09:09:45;3.98;65.44
72772;SHT30;60894;42.544;1.516;2023-12-04T09:12:12;3.98;64.91
72772;SHT30;60894;42.544;1.516;2023-12-04T09:14:39;3.89;64.60
72772;SHT30;60894;42.544;1.516;2023-12-04T09:17:07;4.01;65.12
72772;SHT30;60894;42.544;1.516;2023-12-04T09:19:34;4.19;64.39
72772;SHT30;60894;42.544;1.516;2023-12-04T09:22:01;4.22;64.50
72772;SHT30;60894;42.544;1.516;2023-12-04T09:24:28;4.23;64.11
72772;SHT30;60894;42.544;1.516;2023-12-04T09:26:56;4.44;64.34
72772;SHT30;60894;42.544;1.516;2023-12-04T09:29:23;4.56;63.27
72772;SHT30;60894;42.544;1.516;2023-12-04T09:31:51;4.84;62.71
72772;SHT30;60894;42.544;1.516;2023-12-04T09:34:19;4.89;62.48
72772;SHT30;60894;42.544;1.516;2023-12-04T09:36:48;5.12;61.45
72772;SHT30;60894;42.544;1.516;2023-12-04T09:39:15;5.29;60.81
72772;SHT30;60894;42.544;1.516;2023-12-04T09:41:43;5.66;60.46
72772;SHT30;60894;42.544;1.516;2023-12-04T09:44:10;5.69;60.50
72772;SHT30;60894;42.544;1.516;2023-12-04T09:46:38;5.91;60.06
72772;SHT30;60894;42.544;1.516;2023-12-04T09:49:05;6.17;59.07
72772;SHT30;60894;42.544;1.516;2023-12-04T09:51:34;6.56;58.66
72772;SHT30;60894;42.544;1.516;2023-12-04T09:54:02;6.71;57.79
72772;SHT30;60894;42.544;1.516;2023-12-04T09:56:30;6.89;57.66
72772;SHT30;60894;42.544;1.516;2023-12-04T09:58:59;6.93;57.63
72772;SHT30;60894;42.544;1.516;2023-12-04T10:01:26;7.11;57.13
72772;SHT30;60894;42.544;1.516;2023-12-04T10:03:56;7.14;56.92
72772;SHT30;60894;42.544;1.516;2023-12-04T10:06:24;7.43;56.33
72772;SHT30;60894;42.544;1.516;2023-12-04T10:08:55;7.75;55.77
72772;SHT30;60894;42.544;1.516;2023-12-04T10:11:22;7.75;54.85
72772;SHT30;60894;42.544;1.516;2023-12-04T10:13:50;7.92;54.75
72772;SHT30;60894;42.544;1.516;2023-12-04T10:16:32;8.09;54.69
72772;SHT30;60894;42.544;1.516;2023-12-04T10:19:18;8.43;53.94
72772;SHT30;60894;42.544;1.516;2023-12-04T10:21:46;8.71;53.83
72772;SHT30;60894;42.544;1.516;2023-12-04T10:24:28;8.74;52.78
72772;SHT30;60894;42.544;1.516;2023-12-04T10:26:55;8.95;52.44
72772;SHT30;60894;42.544;1.516;2023-12-04T10:29:23;9.26;52.09
72772;SHT30;60894;42.544;1.516;2023-12-04T10:31:50;8.95;51.36
72772;SHT30;60894;42.544;1.516;2023-12-04T10:34:19;9.18;50.70
72772;SHT30;60894;42.544;1.516;2023-12-04T10:36:47;9.22;50.16
72772;SHT30;60894;42.544;1.516;2023-12-04T10:39:13;9.23;50.56
72772;SHT30;60894;42.544;1.516;2023-12-04T10:41:41;9.82;50.35
72772;SHT30;60894;42.544;1.516;2023-12-04T10:44:08;9.87;48.89
72772;SHT30;60894;42.544;1.516;2023-12-04T10:46:36;10.15;48.62
72772;SHT30;60894;42.544;1.516;2023-12-04T10:49:04;10.34;48.01
72772;SHT30;60894;42.544;1.516;2023-12-04T10:51:31;10.32;48.49
72772;SHT30;60894;42.544;1.516;2023-12-04T10:53:58;9.76;48.12
72772;SHT30;60894;42.544;1.516;2023-12-04T10:56:31;9.79;49.20
72772;SHT30;60894;42.544;1.516;2023-12-04T10:59:02;9.63;49.28
72772;SHT30;60894;42.544;1.516;2023-12-04T11:01:30;9.76;50.21
72772;SHT30;60894;42.544;1.516;2023-12-04T11:03:59;9.76;49.50
72772;SHT30;60894;42.544;1.516;2023-12-04T11:06:35;10.17;48.63
72772;SHT30;60894;42.544;1.516;2023-12-04T11:09:06;10.79;48.25
72772;SHT30;60894;42.544;1.516;2023-12-04T11:11:35;11.20;46.87
72772;SHT30;60894;42.544;1.516;2023-12-04T11:14:08;10.97;46.71
72772;SHT30;60894;42.544;1.516;2023-12-04T11:16:47;10.89;46.54
72772;SHT30;60894;42.544;1.516;2023-12-04T11:19:20;10.99;46.64
72772;SHT30;60894;42.544;1.516;2023-12-04T11:21:52;10.79;46.90
72772;SHT30;60894;42.544;1.516;2023-12-04T11:24:21;10.30;48.08
72772;SHT30;60894;42.544;1.516;2023-12-04T11:26:49;10.04;48.72
72772;SHT30;60894;42.544;1.516;2023-12-04T11:29:18;9.19;50.35
72772;SHT30;60894;42.544;1.516;2023-12-04T11:31:47;9.53;50.35
72772;SHT30;60894;42.544;1.516;2023-12-04T11:34:14;9.59;50.43
72772;SHT30;60894;42.544;1.516;2023-12-04T11:36:41;9.69;49.55
72772;SHT30;60894;42.544;1.516;2023-12-04T11:39:10;9.50;50.36
72772;SHT30;60894;42.544;1.516;2023-12-04T11:41:37;9.16;51.21
72772;SHT30;60894;42.544;1.516;2023-12-04T11:44:11;9.10;51.04
72772;SHT30;60894;42.544;1.516;2023-12-04T11:46:55;9.04;51.72
72772;SHT30;60894;42.544;1.516;2023-12-04T11:49:28;9.19;51.38
72772;SHT30;60894;42.544;1.516;2023-12-04T11:51:55;9.73;51.06
72772;SHT30;60894;42.544;1.516;2023-12-04T11:54:23;9.76;49.90
72772;SHT30;60894;42.544;1.516;2023-12-04T11:59:43;9.74;49.97
72772;SHT30;60894;42.544;1.516;2023-12-04T12:02:11;9.32;51.65
72772;SHT30;60894;42.544;1.516;2023-12-04T12:04:38;9.35;51.93
72772;SHT30;60894;42.544;1.516;2023-12-04T12:07:06;9.79;51.11
72772;SHT30;60894;42.544;1.516;2023-12-04T12:09:33;9.64;50.99
72772;SHT30;60894;42.544;1.516;2023-12-04T12:12:00;9.29;51.65
72772;SHT30;60894;42.544;1.516;2023-12-04T12:14:28;9.74;50.70
72772;SHT30;60894;42.544;1.516;2023-12-04T12:16:55;10.03;49.80
72772;SHT30;60894;42.544;1.516;2023-12-04T12:19:23;10.24;49.91
72772;SHT30;60894;42.544;1.516;2023-12-04T12:21:50;10.93;48.39
72772;SHT30;60894;42.544;1.516;2023-12-04T12:24:18;11.04;47.75
72772;SHT30;60894;42.544;1.516;2023-12-04T12:26:45;11.28;47.21
72772;SHT30;60894;42.544;1.516;2023-12-04T12:29:12;11.09;47.73
72772;SHT30;60894;42.544;1.516;2023-12-04T12:31:39;11.10;47.29
72772;SHT30;60894;42.544;1.516;2023-12-04T12:34:06;10.61;48.23
72772;SHT30;60894;42.544;1.516;2023-12-04T12:36:35;10.58;49.03
72772;SHT30;60894;42.544;1.516;2023-12-04T12:39:02;10.80;48.65
72772;SHT30;60894;42.544;1.516;2023-12-04T12:41:30;11.02;47.83
72772;SHT30;60894;42.544;1.516;2023-12-04T12:43:57;11.12;47.68
72772;SHT30;60894;42.544;1.516;2023-12-04T12:46:25;11.44;47.47
72772;SHT30;60894;42.544;1.516;2023-12-04T12:48:52;11.44;46.88
72772;SHT30;60894;42.544;1.516;2023-12-04T12:51:20;11.26;46.95
72772;SHT30;60894;42.544;1.516;2023-12-04T12:53:49;11.61;46.92
72772;SHT30;60894;42.544;1.516;2023-12-04T12:56:16;11.74;46.58
72772;SHT30;60894;42.544;1.516;2023-12-04T12:58:43;11.82;45.83
72772;SHT30;60894;42.544;1.516;2023-12-04T13:01:10;11.77;46.44
72772;SHT30;60894;42.544;1.516;2023-12-04T13:03:37;11.78;46.35
72772;SHT30;60894;42.544;1.516;2023-12-04T13:06:05;11.98;46.15
72772;SHT30;60894;42.544;1.516;2023-12-04T13:08:32;12.18;46.13
72772;SHT30;60894;42.544;1.516;2023-12-04T13:11:00;11.98;46.14
72772;SHT30;60894;42.544;1.516;2023-12-04T13:13:27;11.47;46.75
72772;SHT30;60894;42.544;1.516;2023-12-04T13:15:55;11.55;47.23
72772;SHT30;60894;42.544;1.516;2023-12-04T13:18:22;11.50;47.18
72772;SHT30;60894;42.544;1.516;2023-12-04T13:20:49;11.74;47.45
72772;SHT30;60894;42.544;1.516;2023-12-04T13:23:16;11.99;46.48
72772;SHT30;60894;42.544;1.516;2023-12-04T13:25:43;11.85;46.26
72772;SHT30;60894;42.544;1.516;2023-12-04T13:28:11;11.30;47.41
72772;SHT30;60894;42.544;1.516;2023-12-04T13:30:39;11.40;48.01
72772;SHT30;60894;42.544;1.516;2023-12-04T13:33:06;11.02;48.59
72772;SHT30;60894;42.544;1.516;2023-12-04T13:35:33;10.86;48.88
72772;SHT30;60894;42.544;1.516;2023-12-04T13:38:00;11.22;48.42
72772;SHT30;60894;42.544;1.516;2023-12-04T13:40:27;11.37;47.75
72772;SHT30;60894;42.544;1.516;2023-12-04T13:42:57;11.13;48.03
72772;SHT30;60894;42.544;1.516;2023-12-04T13:45:43;11.68;47.13
72772;SHT30;60894;42.544;1.516;2023-12-04T13:48:10;11.31;47.58
72772;SHT30;60894;42.544;1.516;2023-12-04T13:50:37;11.00;48.32
72772;SHT30;60894;42.544;1.516;2023-12-04T13:53:04;11.55;47.87
72772;SHT30;60894;42.544;1.516;2023-12-04T13:55:33;11.86;46.86
72772;SHT30;60894;42.544;1.516;2023-12-04T13:58:15;11.85;46.71
72772;SHT30;60894;42.544;1.516;2023-12-04T14:00:57;11.35;47.55
72772;SHT30;60894;42.544;1.516;2023-12-04T14:03:25;11.24;47.76
72772;SHT30;60894;42.544;1.516;2023-12-04T14:05:53;12.29;46.17
72772;SHT30;60894;42.544;1.516;2023-12-04T14:08:20;12.46;45.55
72772;SHT30;60894;42.544;1.516;2023-12-04T14:10:47;12.32;45.69
72772;SHT30;60894;42.544;1.516;2023-12-04T14:13:14;12.73;45.21
72772;SHT30;60894;42.544;1.516;2023-12-04T14:15:41;12.29;45.70
72772;SHT30;60894;42.544;1.516;2023-12-04T14:18:09;11.51;47.57
72772;SHT30;60894;42.544;1.516;2023-12-04T14:20:36;10.93;49.76
72772;SHT30;60894;42.544;1.516;2023-12-04T14:23:03;10.37;50.46
72772;SHT30;60894;42.544;1.516;2023-12-04T14:25:30;10.17;51.70
72772;SHT30;60894;42.544;1.516;2023-12-04T14:27:57;9.91;52.11
72772;SHT30;60894;42.544;1.516;2023-12-04T14:30:24;9.87;52.88
72772;SHT30;60894;42.544;1.516;2023-12-04T14:32:53;9.79;52.80
72772;SHT30;60894;42.544;1.516;2023-12-04T14:35:21;9.66;53.09
72772;SHT30;60894;42.544;1.516;2023-12-04T14:37:48;9.67;53.17
72772;SHT30;60894;42.544;1.516;2023-12-04T14:40:15;9.46;53.80
72772;SHT30;60894;42.544;1.516;2023-12-04T14:42:43;9.46;53.89
72772;SHT30;60894;42.544;1.516;2023-12-04T14:45:10;9.28;54.21
72772;SHT30;60894;42.544;1.516;2023-12-04T14:47:37;9.10;54.97
72772;SHT30;60894;42.544;1.516;2023-12-04T14:50:05;9.01;55.46
72772;SHT30;60894;42.544;1.516;2023-12-04T14:52:33;8.94;56.26
72772;SHT30;60894;42.544;1.516;2023-12-04T14:55:03;8.85;56.45
72772;SHT30;60894;42.544;1.516;2023-12-04T14:57:59;8.74;57.06
72772;SHT30;60894;42.544;1.516;2023-12-04T15:00:40;8.80;57.14
72772;SHT30;60894;42.544;1.516;2023-12-04T15:03:21;8.72;57.21
72772;SHT30;60894;42.544;1.516;2023-12-04T15:06:02;8.53;57.53
72772;SHT30;60894;42.544;1.516;2023-12-04T15:08:50;8.44;58.12
72772;SHT30;60894;42.544;1.516;2023-12-04T15:11:46;8.33;58.66
72772;SHT30;60894;42.544;1.516;2023-12-04T15:14:40;8.43;58.51
72772;SHT30;60894;42.544;1.516;2023-12-04T15:17:15;8.37;58.02
72772;SHT30;60894;42.544;1.516;2023-12-04T15:19:53;8.32;58.23
72772;SHT30;60894;42.544;1.516;2023-12-04T15:22:43;8.26;58.48
72772;SHT30;60894;42.544;1.516;2023-12-04T15:25:11;8.34;58.57
72772;SHT30;60894;42.544;1.516;2023-12-04T15:27:37;8.36;58.62
72772;SHT30;60894;42.544;1.516;2023-12-04T15:30:05;8.39;58.64
72772;SHT30;60894;42.544;1.516;2023-12-04T15:32:33;8.37;58.71
72772;SHT30;60894;42.544;1.516;2023-12-04T15:35:00;8.20;59.02
72772;SHT30;60894;42.544;1.516;2023-12-04T15:37:26;8.30;59.24
72772;SHT30;60894;42.544;1.516;2023-12-04T15:39:53;8.33;59.46
72772;SHT30;60894;42.544;1.516;2023-12-04T15:42:20;8.34;59.40
72772;SHT30;60894;42.544;1.516;2023-12-04T15:44:47;8.03;60.36
72772;SHT30;60894;42.544;1.516;2023-12-04T15:47:13;7.81;61.73
72772;SHT30;60894;42.544;1.516;2023-12-04T15:49:40;7.85;61.30
72772;SHT30;60894;42.544;1.516;2023-12-04T15:52:06;8.09;60.89